createdAt,value
2018-07-04T00:02:44.610Z,82.41
2018-07-04T00:05:31.915Z,82.36
2018-07-04T00:08:18.531Z,82.64
2018-07-04T00:11:05.279Z,83.29
2018-07-04T00:13:52.073Z,83.55
2018-07-04T00:16:40.523Z,83.78
2018-07-04T00:19:27.029Z,83.85
2018-07-04T00:22:07.646Z,83.57
2018-07-04T00:24:54.047Z,83.65
2018-07-04T00:27:40.447Z,83.19
2018-07-04T00:30:26.758Z,82.45
2018-07-04T00:33:13.442Z,83.21
2018-07-04T00:36:00.076Z,83.79
2018-07-04T00:38:46.559Z,83.11
2018-07-04T00:41:32.963Z,80.39
2018-07-04T00:44:19.287Z,80.10
2018-07-04T00:47:05.758Z,79.04
2018-07-04T00:49:52.041Z,77.74
2018-07-04T00:52:32.419Z,78.48
2018-07-04T00:55:18.859Z,79.88
2018-07-04T00:58:07.246Z,79.40
2018-07-04T01:00:53.589Z,81.48
2018-07-04T01:03:40.105Z,81.48
2018-07-04T01:06:26.362Z,82.08
2018-07-04T01:09:07.304Z,82.94
2018-07-04T01:11:55.309Z,83.13
2018-07-04T01:14:41.698Z,83.17
2018-07-04T01:17:28.307Z,82.76
2018-07-04T01:20:14.519Z,83.23
2018-07-04T01:23:00.885Z,80.94
2018-07-04T01:25:41.531Z,79.98
2018-07-04T01:28:33.465Z,79.83
2018-07-04T01:31:20.272Z,81.20
2018-07-04T01:34:07.486Z,83.00
2018-07-04T01:36:53.968Z,83.29
2018-07-04T01:39:40.430Z,83.33
2018-07-04T01:42:21.836Z,83.35
2018-07-04T01:45:08.383Z,84.60
2018-07-04T01:47:54.850Z,84.37
2018-07-04T01:50:41.982Z,82.64
2018-07-04T01:53:28.504Z,81.49
2018-07-04T01:56:14.762Z,80.35
2018-07-04T01:59:01.266Z,81.86
2018-07-04T02:01:47.827Z,85.60
2018-07-04T02:04:34.267Z,87.09
2018-07-04T02:07:14.668Z,84.83
2018-07-04T02:10:01.350Z,84.62
2018-07-04T02:12:47.596Z,82.70
2018-07-04T02:15:33.838Z,83.48
2018-07-04T02:18:21.031Z,83.68
2018-07-04T02:21:07.515Z,82.60
2018-07-04T02:23:54.502Z,81.27
2018-07-04T02:26:41.035Z,81.70
2018-07-04T02:29:28.739Z,83.34
2018-07-04T02:32:15.550Z,84.36
2018-07-04T02:35:02.172Z,84.37
2018-07-04T02:37:49.881Z,83.51
2018-07-04T02:40:36.234Z,83.95
2018-07-04T02:43:22.749Z,86.09
2018-07-04T02:46:09.012Z,85.99
2018-07-04T02:48:56.579Z,85.21
2018-07-04T02:51:43.453Z,83.88
2018-07-04T02:54:29.778Z,83.47
2018-07-04T02:57:16.228Z,82.14
2018-07-04T03:00:02.590Z,82.46
2018-07-04T03:02:48.974Z,81.46
2018-07-04T03:05:35.380Z,82.80
2018-07-04T03:08:21.752Z,84.74
2018-07-04T03:11:08.717Z,85.15
2018-07-04T03:13:54.969Z,85.38
2018-07-04T03:16:41.331Z,84.31
2018-07-04T03:19:27.753Z,83.68
2018-07-04T03:22:13.986Z,83.54
2018-07-04T03:25:00.474Z,82.82
2018-07-04T03:27:47.149Z,83.37
2018-07-04T03:30:34.836Z,82.86
2018-07-04T03:33:21.214Z,82.10
2018-07-04T03:36:08.910Z,83.42
2018-07-04T03:38:55.482Z,81.85
2018-07-04T03:41:42.159Z,81.90
2018-07-04T03:44:28.499Z,83.51
2018-07-04T03:47:15.177Z,83.09
2018-07-04T03:50:01.704Z,84.75
2018-07-04T03:52:48.128Z,85.91
2018-07-04T03:55:34.814Z,85.62
2018-07-04T03:58:21.369Z,85.88
2018-07-04T04:01:08.734Z,87.04
2018-07-04T04:03:55.263Z,87.90
2018-07-04T04:06:41.836Z,87.96
2018-07-04T04:09:29.111Z,88.87
2018-07-04T04:12:16.493Z,88.98
2018-07-04T04:15:02.826Z,88.53
2018-07-04T04:17:49.916Z,88.16
2018-07-04T04:20:36.201Z,88.38
2018-07-04T04:23:22.631Z,88.44
2018-07-04T04:26:09.007Z,88.48
2018-07-04T04:28:55.445Z,88.09
2018-07-04T04:31:41.926Z,88.81
2018-07-04T04:34:28.310Z,88.42
2018-07-04T04:37:14.729Z,88.57
2018-07-04T04:40:01.266Z,88.62
2018-07-04T04:42:47.725Z,88.68
2018-07-04T04:45:34.056Z,87.66
2018-07-04T04:48:20.834Z,87.69
2018-07-04T04:51:07.277Z,87.11
2018-07-04T04:53:53.793Z,86.83
2018-07-04T04:56:40.706Z,86.49
2018-07-04T04:59:27.449Z,86.38
2018-07-04T05:02:07.840Z,85.95
2018-07-04T05:04:54.462Z,86.16
2018-07-04T05:07:41.013Z,86.56
2018-07-04T05:10:27.268Z,85.96
2018-07-04T05:13:13.846Z,86.54
2018-07-04T05:15:54.199Z,85.21
2018-07-04T05:18:40.861Z,84.86
2018-07-04T05:21:27.236Z,83.97
2018-07-04T05:24:13.790Z,84.31
2018-07-04T05:27:00.278Z,83.68
2018-07-04T05:29:46.997Z,82.94
2018-07-04T05:32:33.477Z,83.41
2018-07-04T05:35:19.922Z,82.24
2018-07-04T05:38:06.479Z,81.86
2018-07-04T05:40:53.258Z,82.20
2018-07-04T05:43:33.799Z,82.99
2018-07-04T05:46:14.561Z,81.07
2018-07-04T05:49:01.009Z,80.67
2018-07-04T05:51:47.305Z,81.30
2018-07-04T05:54:27.736Z,82.04
2018-07-04T05:57:14.091Z,81.00
2018-07-04T06:00:00.440Z,80.32
2018-07-04T06:02:46.843Z,79.05
2018-07-04T06:05:33.304Z,80.45
2018-07-04T06:08:19.994Z,80.86
2018-07-04T06:11:06.540Z,78.30
2018-07-04T06:13:53.117Z,77.84
2018-07-04T06:16:39.913Z,78.62
2018-07-04T06:19:26.449Z,76.27
2018-07-04T06:22:12.827Z,76.33
2018-07-04T06:24:59.357Z,75.47
2018-07-04T06:27:46.630Z,75.70
2018-07-04T06:30:27.135Z,76.16
2018-07-04T06:33:13.746Z,74.78
2018-07-04T06:36:00.818Z,76.27
2018-07-04T06:38:28.579Z,76.07
2018-07-04T06:40:56.476Z,77.33
2018-07-04T06:43:24.541Z,76.34
2018-07-04T06:45:52.746Z,75.44
2018-07-04T06:48:20.527Z,74.66
2018-07-04T06:50:48.302Z,74.88
2018-07-04T06:53:16.058Z,73.98
2018-07-04T06:55:43.845Z,74.93
2018-07-04T06:58:11.605Z,73.67
2018-07-04T07:00:39.368Z,73.55
2018-07-04T07:03:25.870Z,72.19
2018-07-04T07:06:12.238Z,73.31
2018-07-04T07:08:58.647Z,73.86
2018-07-04T07:11:45.253Z,71.04
2018-07-04T07:14:31.759Z,71.65
2018-07-04T07:17:18.042Z,70.51
2018-07-04T07:20:04.469Z,69.73
2018-07-04T07:22:50.864Z,69.24
2018-07-04T07:25:37.271Z,68.62
2018-07-04T07:28:23.809Z,66.10
2018-07-04T07:31:10.297Z,69.06
2018-07-04T07:33:56.798Z,66.53
2018-07-04T07:36:43.736Z,65.51
2018-07-04T07:39:30.132Z,66.82
2018-07-04T07:42:16.508Z,66.83
2018-07-04T07:45:02.976Z,66.95
2018-07-04T07:47:43.431Z,66.64
2018-07-04T07:50:29.772Z,65.79
2018-07-04T07:53:16.289Z,64.12
2018-07-04T07:56:02.597Z,63.91
2018-07-04T07:58:49.216Z,62.33
2018-07-04T08:01:35.705Z,63.37
2018-07-04T08:04:22.409Z,62.92
2018-07-04T08:07:09.042Z,63.62
2018-07-04T08:09:55.600Z,62.17
2018-07-04T08:12:42.223Z,62.98
2018-07-04T08:15:28.706Z,61.80
2018-07-04T08:18:15.231Z,60.65
2018-07-04T08:21:01.534Z,61.16
2018-07-04T08:23:48.020Z,60.28
2018-07-04T08:26:34.583Z,58.52
2018-07-04T08:29:21.096Z,59.72
2018-07-04T08:32:07.722Z,59.65
2018-07-04T08:34:48.477Z,61.58
2018-07-04T08:37:35.149Z,60.07
2018-07-04T08:40:21.737Z,60.60
2018-07-04T08:43:08.293Z,60.35
2018-07-04T08:45:54.889Z,62.80
2018-07-04T08:48:41.225Z,59.41
2018-07-04T08:51:21.727Z,59.55
2018-07-04T08:54:08.342Z,59.83
2018-07-04T08:56:54.620Z,60.01
2018-07-04T08:59:41.000Z,59.04
2018-07-04T09:02:21.496Z,57.74
2018-07-04T09:05:08.012Z,59.73
2018-07-04T09:07:54.539Z,58.21
2018-07-04T09:10:41.382Z,58.36
2018-07-04T09:13:21.895Z,58.03
2018-07-04T09:16:08.173Z,57.39
2018-07-04T09:18:54.697Z,57.60
2018-07-04T09:21:41.345Z,57.07
2018-07-04T09:24:27.847Z,57.03
2018-07-04T09:27:14.380Z,56.84
2018-07-04T09:30:00.964Z,57.67
2018-07-04T09:32:47.415Z,53.04
2018-07-04T09:35:33.824Z,51.96
2018-07-04T09:38:20.381Z,52.73
2018-07-04T09:41:06.945Z,52.22
2018-07-04T09:43:53.836Z,53.19
2018-07-04T09:46:40.356Z,49.39
2018-07-04T09:49:26.755Z,50.16
2018-07-04T09:52:13.272Z,50.64
2018-07-04T09:55:00.008Z,51.78
2018-07-04T09:57:46.397Z,53.13
2018-07-04T10:00:32.898Z,52.89
2018-07-04T10:03:19.401Z,53.40
2018-07-04T10:06:06.645Z,49.50
2018-07-04T10:08:53.211Z,48.04
2018-07-04T10:11:39.973Z,49.01
2018-07-04T10:14:26.342Z,49.43
2018-07-04T10:17:12.876Z,47.60
2018-07-04T10:19:59.719Z,48.62
2018-07-04T10:22:40.301Z,49.91
2018-07-04T10:25:26.774Z,49.41
2018-07-04T10:28:13.471Z,48.01
2018-07-04T10:30:59.882Z,44.74
2018-07-04T10:33:46.245Z,45.34
2018-07-04T10:36:32.713Z,46.23
2018-07-04T10:39:19.284Z,48.12
2018-07-04T10:42:05.757Z,47.60
2018-07-04T10:44:52.380Z,43.65
2018-07-04T10:47:38.818Z,44.38
2018-07-04T10:50:25.225Z,45.89
2018-07-04T10:53:05.867Z,44.51
2018-07-04T10:55:52.288Z,44.62
2018-07-04T10:58:38.753Z,44.12
2018-07-04T11:01:25.088Z,43.20
2018-07-04T11:04:11.552Z,44.36
2018-07-04T11:06:57.996Z,45.35
2018-07-04T11:09:44.457Z,43.72
2018-07-04T11:12:30.946Z,41.25
2018-07-04T11:15:17.841Z,40.77
2018-07-04T11:17:58.229Z,42.18
2018-07-04T11:20:44.783Z,39.52
2018-07-04T11:23:31.345Z,41.79
2018-07-04T11:26:17.825Z,44.78
2018-07-04T11:28:58.290Z,43.41
2018-07-04T11:31:38.787Z,43.63
2018-07-04T11:34:25.426Z,42.60
2018-07-04T11:37:11.974Z,43.33
2018-07-04T11:39:59.194Z,42.89
2018-07-04T11:42:45.723Z,43.18
2018-07-04T11:45:32.143Z,42.09
2018-07-04T11:48:00.444Z,41.81
2018-07-04T11:50:28.230Z,41.33
2018-07-04T11:52:56.905Z,41.80
2018-07-04T11:55:25.658Z,41.81
2018-07-04T11:57:53.413Z,40.89
2018-07-04T12:00:21.201Z,40.91
2018-07-04T12:02:49.170Z,39.63
2018-07-04T12:05:35.708Z,40.78
2018-07-04T12:08:03.448Z,38.59
2018-07-04T12:10:31.211Z,40.47
2018-07-04T12:12:59.002Z,39.38
2018-07-04T12:15:26.822Z,38.26
2018-07-04T12:17:54.586Z,38.37
2018-07-04T12:20:22.463Z,37.51
2018-07-04T12:22:50.215Z,36.51
2018-07-04T12:25:18.090Z,37.75
2018-07-04T12:27:45.903Z,36.60
2018-07-04T12:30:13.656Z,33.68
2018-07-04T12:32:41.430Z,30.70
2018-07-04T12:35:09.228Z,28.22
2018-07-04T12:37:37.013Z,29.53
2018-07-04T12:40:04.796Z,27.92
2018-07-04T12:42:32.641Z,25.93
2018-07-04T12:45:00.662Z,26.10
2018-07-04T12:47:28.453Z,25.38
2018-07-04T12:49:56.398Z,26.05
2018-07-04T12:52:24.149Z,28.24
2018-07-04T12:55:12.796Z,24.42
2018-07-04T12:57:59.076Z,24.57
2018-07-04T13:00:45.640Z,23.63
2018-07-04T13:03:32.200Z,23.15
2018-07-04T13:06:18.921Z,24.30
2018-07-04T13:09:05.756Z,23.34
2018-07-04T13:11:52.845Z,23.92
2018-07-04T13:14:39.477Z,24.47
2018-07-04T13:17:26.324Z,26.18
2018-07-04T13:20:12.647Z,25.51
2018-07-04T13:22:59.041Z,24.87
2018-07-04T13:25:45.604Z,22.21
2018-07-04T13:28:32.336Z,22.83
2018-07-04T13:31:19.337Z,21.20
2018-07-04T13:34:06.211Z,22.75
2018-07-04T13:36:52.883Z,24.38
2018-07-04T13:39:39.417Z,23.87
2018-07-04T13:42:26.233Z,24.66
2018-07-04T13:45:13.585Z,23.32
2018-07-04T13:48:00.015Z,22.62
2018-07-04T13:50:46.545Z,22.85
2018-07-04T13:53:34.932Z,20.73
2018-07-04T13:56:21.516Z,21.03
2018-07-04T13:59:08.154Z,19.85
2018-07-04T14:01:55.290Z,20.94
2018-07-04T14:04:42.014Z,21.65
2018-07-04T14:07:22.510Z,19.68
2018-07-04T14:10:09.158Z,19.26
2018-07-04T14:12:55.623Z,18.28
2018-07-04T14:15:42.258Z,18.65
2018-07-04T14:18:28.747Z,17.53
2018-07-04T14:21:15.069Z,18.38
2018-07-04T14:24:01.528Z,18.30
2018-07-04T14:26:48.312Z,19.17
2018-07-04T14:29:34.837Z,18.96
2018-07-04T14:32:15.133Z,19.23
2018-07-04T14:35:01.650Z,20.19
2018-07-04T14:37:48.296Z,18.32
2018-07-04T14:40:28.762Z,18.56
2018-07-04T14:43:09.235Z,18.87
2018-07-04T14:45:50.004Z,20.02
2018-07-04T14:48:30.472Z,20.41
2018-07-04T14:51:11.189Z,21.20
2018-07-04T14:53:57.676Z,20.09
2018-07-04T14:56:44.265Z,19.21
2018-07-04T14:59:31.561Z,20.45
2018-07-04T15:02:12.071Z,19.71
2018-07-04T15:04:58.699Z,19.36
2018-07-04T15:07:44.975Z,20.34
2018-07-04T15:10:31.516Z,19.65
2018-07-04T15:13:17.930Z,20.02
2018-07-04T15:16:04.520Z,19.25
2018-07-04T15:18:50.920Z,18.76
2018-07-04T15:21:37.477Z,17.04
2018-07-04T15:24:23.804Z,18.48
2018-07-04T15:27:10.375Z,19.69
2018-07-04T15:29:50.598Z,18.30
2018-07-04T15:32:37.311Z,19.97
2018-07-04T15:35:23.687Z,19.14
2018-07-04T15:38:10.207Z,18.96
2018-07-04T15:40:56.599Z,19.83
2018-07-04T15:43:43.190Z,19.97
2018-07-04T15:46:29.570Z,21.23
2018-07-04T15:49:17.285Z,19.57
2018-07-04T15:52:03.781Z,20.33
2018-07-04T15:54:50.690Z,19.90
2018-07-04T15:57:37.031Z,19.66
2018-07-04T16:00:23.476Z,20.89
2018-07-04T16:03:10.306Z,19.39
2018-07-04T16:05:56.611Z,19.94
2018-07-04T16:08:43.068Z,18.35
2018-07-04T16:11:29.509Z,21.59
2018-07-04T16:14:15.886Z,20.80
2018-07-04T16:17:02.408Z,22.25
2018-07-04T16:19:49.004Z,21.38
2018-07-04T16:22:35.534Z,21.84
2018-07-04T16:25:22.016Z,21.57
2018-07-04T16:28:08.629Z,21.09
2018-07-04T16:30:55.138Z,22.13
2018-07-04T16:33:41.510Z,25.25
2018-07-04T16:36:27.897Z,25.97
2018-07-04T16:39:14.325Z,26.58
2018-07-04T16:42:00.712Z,26.48
2018-07-04T16:44:47.149Z,27.15
2018-07-04T16:47:33.611Z,29.92
2018-07-04T16:50:20.121Z,29.13
2018-07-04T16:53:06.507Z,30.66
2018-07-04T16:55:46.816Z,31.27
2018-07-04T16:58:33.333Z,31.12
2018-07-04T17:01:20.673Z,31.84
2018-07-04T17:04:07.137Z,32.28
2018-07-04T17:06:53.976Z,32.74
2018-07-04T17:09:40.505Z,34.33
2018-07-04T17:12:26.953Z,34.22
2018-07-04T17:15:13.412Z,34.78
2018-07-04T17:17:59.884Z,36.56
2018-07-04T17:20:46.559Z,38.35
2018-07-04T17:23:32.877Z,40.14
2018-07-04T17:26:19.349Z,40.91
2018-07-04T17:29:05.812Z,40.09
2018-07-04T17:31:52.157Z,40.96
2018-07-04T17:34:38.514Z,42.43
2018-07-04T17:37:24.983Z,41.44
2018-07-04T17:40:11.525Z,41.75
2018-07-04T17:42:58.096Z,42.69
2018-07-04T17:45:44.618Z,42.06
2018-07-04T17:48:31.359Z,42.19
2018-07-04T17:51:17.667Z,41.79
2018-07-04T17:54:04.309Z,41.89
2018-07-04T17:56:51.204Z,39.94
2018-07-04T17:59:31.593Z,39.92
2018-07-04T18:02:18.199Z,39.17
2018-07-04T18:05:04.871Z,37.40
2018-07-04T18:07:51.423Z,35.08
2018-07-04T18:10:37.874Z,36.43
2018-07-04T18:13:24.321Z,37.63
2018-07-04T18:16:10.738Z,37.27
2018-07-04T18:18:57.109Z,36.64
2018-07-04T18:21:37.534Z,36.52
2018-07-04T18:24:23.902Z,37.53
2018-07-04T18:27:10.400Z,37.26
2018-07-04T18:29:56.812Z,37.35
2018-07-04T18:32:43.443Z,37.79
2018-07-04T18:35:30.071Z,38.49
2018-07-04T18:38:16.457Z,37.91
2018-07-04T18:41:02.826Z,37.41
2018-07-04T18:43:49.554Z,37.75
2018-07-04T18:46:36.041Z,38.31
2018-07-04T18:49:22.467Z,38.86
2018-07-04T18:52:09.062Z,38.78
2018-07-04T18:54:55.433Z,39.71
2018-07-04T18:57:41.843Z,40.09
2018-07-04T19:00:28.262Z,38.79
2018-07-04T19:03:14.636Z,38.08
2018-07-04T19:06:00.925Z,39.50
2018-07-04T19:08:47.326Z,38.19
2018-07-04T19:11:27.630Z,36.94
2018-07-04T19:14:14.252Z,37.07
2018-07-04T19:17:00.814Z,37.06
2018-07-04T19:19:47.176Z,37.58
2018-07-04T19:22:33.541Z,37.05
2018-07-04T19:25:19.870Z,37.77
2018-07-04T19:28:06.117Z,38.84
2018-07-04T19:30:46.461Z,39.07
2018-07-04T19:33:27.044Z,39.80
2018-07-04T19:36:07.628Z,41.38
2018-07-04T19:38:53.958Z,41.50
2018-07-04T19:41:40.502Z,42.29
2018-07-04T19:44:26.858Z,43.22
2018-07-04T19:47:14.506Z,43.16
2018-07-04T19:50:01.093Z,44.12
2018-07-04T19:52:47.645Z,44.85
2018-07-04T19:55:34.212Z,45.44
2018-07-04T19:58:23.741Z,46.63
2018-07-04T20:01:04.246Z,48.25
2018-07-04T20:03:50.693Z,48.28
2018-07-04T20:06:37.053Z,48.73
2018-07-04T20:09:23.411Z,50.33
2018-07-04T20:12:03.867Z,50.89
2018-07-04T20:14:50.422Z,52.27
2018-07-04T20:17:36.974Z,52.81
2018-07-04T20:20:23.468Z,53.87
2018-07-04T20:23:10.936Z,54.13
2018-07-04T20:25:57.242Z,55.15
2018-07-04T20:28:43.897Z,55.72
2018-07-04T20:31:30.463Z,55.88
2018-07-04T20:34:17.145Z,57.30
2018-07-04T20:36:57.661Z,58.99
2018-07-04T20:39:44.491Z,58.04
2018-07-04T20:42:31.079Z,59.63
2018-07-04T20:45:17.550Z,60.56
2018-07-04T20:48:03.957Z,61.52
2018-07-04T20:50:50.332Z,61.73
2018-07-04T20:53:30.932Z,62.61
2018-07-04T20:56:17.690Z,62.82
2018-07-04T20:59:04.159Z,63.70
2018-07-04T21:01:50.620Z,63.93
2018-07-04T21:04:36.958Z,64.17
2018-07-04T21:07:23.510Z,64.33
2018-07-04T21:10:10.369Z,64.99
2018-07-04T21:12:57.120Z,65.80
2018-07-04T21:15:43.488Z,66.46
2018-07-04T21:18:30.044Z,67.12
2018-07-04T21:21:16.378Z,67.77
2018-07-04T21:24:03.010Z,66.37
2018-07-04T21:26:49.523Z,67.94
2018-07-04T21:29:36.243Z,67.94
2018-07-04T21:32:22.701Z,69.53
2018-07-04T21:35:09.037Z,69.14
2018-07-04T21:37:55.361Z,69.94
2018-07-04T21:40:41.830Z,70.09
2018-07-04T21:43:28.365Z,71.05
2018-07-04T21:46:15.044Z,71.14
2018-07-04T21:49:01.430Z,71.28
2018-07-04T21:51:47.794Z,72.14
2018-07-04T21:54:34.197Z,71.45
2018-07-04T21:57:20.559Z,72.50
2018-07-04T22:00:07.413Z,72.27
2018-07-04T22:02:53.877Z,72.95
2018-07-04T22:05:40.280Z,73.75
2018-07-04T22:08:26.741Z,74.14
2018-07-04T22:11:13.080Z,73.86
2018-07-04T22:13:59.611Z,74.10
2018-07-04T22:16:46.006Z,74.20
2018-07-04T22:19:32.491Z,74.25
2018-07-04T22:22:18.930Z,75.02
2018-07-04T22:25:05.322Z,74.80
2018-07-04T22:27:51.920Z,75.22
2018-07-04T22:30:38.546Z,75.37
2018-07-04T22:33:25.680Z,75.09
2018-07-04T22:36:12.112Z,75.82
2018-07-04T22:38:58.524Z,75.80
2018-07-04T22:41:45.212Z,76.62
2018-07-04T22:44:25.866Z,77.16
2018-07-04T22:47:12.422Z,76.88
2018-07-04T22:49:58.860Z,76.86
2018-07-04T22:52:45.337Z,77.39
2018-07-04T22:55:31.887Z,77.72
2018-07-04T22:58:18.308Z,77.24
2018-07-04T23:01:04.705Z,78.02
2018-07-04T23:03:45.086Z,78.59
2018-07-04T23:06:31.487Z,77.50
2018-07-04T23:09:17.825Z,78.32
2018-07-04T23:12:04.238Z,78.37
2018-07-04T23:14:50.641Z,79.26
2018-07-04T23:17:36.927Z,78.65
2018-07-04T23:20:23.386Z,78.90
2018-07-04T23:23:03.815Z,80.11
2018-07-04T23:25:50.130Z,79.16
2018-07-04T23:28:36.586Z,79.94
2018-07-04T23:31:23.015Z,80.00
2018-07-04T23:34:09.385Z,79.95
2018-07-04T23:36:55.913Z,80.09
2018-07-04T23:39:42.305Z,79.55
2018-07-04T23:42:28.827Z,80.45
2018-07-04T23:45:15.308Z,80.07
2018-07-04T23:48:01.729Z,79.66
2018-07-04T23:50:48.185Z,79.82
2018-07-04T23:53:28.717Z,79.03
2018-07-04T23:56:15.385Z,79.84
2018-07-04T23:59:01.713Z,80.39
